KCMI/CMI METAR and TAF weather

Enter ICAO airport designator
Station Type Date Time Source
KCMI METAR 2020/03/29 11:53 UTC NOAA

KCMI 291153Z 23026G33KT 10SM OVC048 09/04 A2965 RMK AO2 PK WND 24037/1100 SLP039 70011 T00890039 10172 20089 53033


Station Type Date Time Source
KCMI Decoded METAR 2020/03/29 11:53 UTC NOAA

UNIV OF ILLINOIS-WILLARD, IL, United States (KCMI) 40-02N 088-16W 228M
Mar 29, 2020 - 07:53 AM EDT / 2020.03.29 1153 UTC
Wind: from the SW (230 degrees) at 30 MPH (26 KT) gusting to 38 MPH (33 KT):0
Visibility: 10 mile(s):0
Sky conditions: overcast
Temperature: 48.0 F (8.9 C)
Dew Point: 39.0 F (3.9 C)
Relative Humidity: 70%
Pressure (altimeter): 29.65 in. Hg (1004 hPa)
Pressure tendency: 0.10 inches (3.3 hPa) higher than three hours ago
ob: KCMI 291153Z 23026G33KT 10SM OVC048 09/04 A2965 RMK AO2 PK WND 24037/1100 SLP039 70011 T00890039 10172 20089 53033
cycle: 12

Station Type Date Time Source
KCMI TAF 2020/03/29 12:27 UTC NOAA

TAF KCMI 291123Z 2912/3012 24015G25KT P6SM BKN035 OVC060
FM291300 25025G38KT P6SM BKN022
FM291900 25026G41KT P6SM BKN060
FM300100 26015G24KT P6SM FEW250
FM300600 28010KT P6SM SKC

Example: see airport list